createdAt,value
2022-11-18T00:03:08.824Z,11.50
2022-11-18T00:06:33.778Z,11.50
2022-11-18T00:09:57.363Z,11.50
2022-11-18T00:13:39.568Z,11.50
2022-11-18T00:17:06.078Z,11.50
2022-11-18T00:20:29.652Z,11.60
2022-11-18T00:23:54.529Z,11.60
2022-11-18T00:27:18.113Z,11.60
2022-11-18T00:30:41.758Z,11.70
2022-11-18T00:34:06.186Z,11.70
2022-11-18T00:37:29.728Z,11.70
2022-11-18T00:41:02.555Z,11.70
2022-11-18T00:44:25.282Z,11.70
2022-11-18T00:47:48.797Z,11.70
2022-11-18T00:51:16.508Z,11.70
2022-11-18T00:54:40.006Z,11.70
2022-11-18T00:58:04.806Z,11.70
2022-11-18T01:01:28.477Z,11.80
2022-11-18T01:04:52.149Z,11.80
2022-11-18T01:08:16.305Z,11.80
2022-11-18T01:11:57.379Z,11.80
2022-11-18T01:15:22.207Z,11.80
2022-11-18T01:18:45.722Z,11.80
2022-11-18T01:22:09.232Z,11.80
2022-11-18T01:25:32.982Z,11.80
2022-11-18T01:28:58.389Z,11.80
2022-11-18T01:32:24.969Z,11.80
2022-11-18T01:35:48.981Z,11.70
2022-11-18T01:39:12.704Z,11.70
2022-11-18T01:42:37.175Z,11.60
2022-11-18T01:46:01.007Z,11.60
2022-11-18T01:49:26.233Z,11.60
2022-11-18T01:52:52.200Z,11.60
2022-11-18T01:56:21.331Z,11.60
2022-11-18T01:59:49.661Z,11.60
2022-11-18T02:03:16.233Z,11.50
2022-11-18T02:06:42.135Z,11.50
2022-11-18T02:10:11.067Z,11.50
2022-11-18T02:13:34.550Z,11.50
2022-11-18T02:17:14.902Z,11.40
2022-11-18T02:20:43.382Z,11.40
2022-11-18T02:24:42.802Z,11.40
2022-11-18T02:28:37.747Z,11.30
2022-11-18T02:32:11.024Z,11.30
2022-11-18T02:35:42.668Z,11.20
2022-11-18T02:39:14.153Z,11.20
2022-11-18T02:42:43.031Z,11.20
2022-11-18T02:46:12.340Z,11.20
2022-11-18T02:49:43.019Z,11.20
2022-11-18T02:53:11.313Z,11.20
2022-11-18T02:56:36.783Z,11.10
2022-11-18T03:00:00.215Z,11.10
2022-11-18T03:03:29.318Z,11.10
2022-11-18T03:07:10.849Z,11.10
2022-11-18T03:10:44.850Z,11.00
2022-11-18T03:14:24.722Z,11.20
2022-11-18T03:17:59.445Z,11.00
2022-11-18T03:21:32.995Z,11.00
2022-11-18T03:25:07.082Z,11.00
2022-11-18T03:28:39.861Z,11.00
2022-11-18T03:32:11.489Z,11.00
2022-11-18T03:35:41.792Z,11.00
2022-11-18T03:39:09.804Z,11.00
2022-11-18T03:42:40.759Z,11.00
2022-11-18T03:46:11.771Z,11.00
2022-11-18T03:49:44.579Z,11.00
2022-11-18T03:53:10.182Z,11.00
2022-11-18T03:56:43.210Z,11.00
2022-11-18T04:00:13.918Z,11.00
2022-11-18T04:03:38.686Z,11.00
2022-11-18T04:07:09.982Z,11.00
2022-11-18T04:10:40.391Z,11.00
2022-11-18T04:14:05.679Z,11.00
2022-11-18T04:17:30.793Z,10.90
2022-11-18T04:20:54.809Z,11.00
2022-11-18T04:24:18.536Z,10.90
2022-11-18T04:27:42.006Z,10.90
2022-11-18T04:31:05.746Z,10.90
2022-11-18T04:34:31.321Z,10.90
2022-11-18T04:37:55.084Z,10.90
2022-11-18T04:41:18.679Z,10.90
2022-11-18T04:44:42.341Z,10.90
2022-11-18T04:48:06.787Z,10.90
2022-11-18T04:51:31.589Z,10.90
2022-11-18T04:54:55.045Z,10.80
2022-11-18T04:58:18.607Z,10.80
2022-11-18T05:01:42.253Z,10.80
2022-11-18T05:05:06.929Z,10.70
2022-11-18T05:08:32.735Z,10.70
2022-11-18T05:12:13.839Z,10.70
2022-11-18T05:15:37.278Z,10.70
2022-11-18T05:19:00.750Z,10.70
2022-11-18T05:22:24.333Z,10.70
2022-11-18T05:25:49.494Z,10.70
2022-11-18T05:29:13.565Z,10.70
2022-11-18T05:32:37.233Z,10.60
2022-11-18T05:36:05.218Z,10.60
2022-11-18T05:39:28.678Z,10.50
2022-11-18T05:43:11.191Z,10.50
2022-11-18T05:46:34.739Z,10.40
2022-11-18T05:49:58.214Z,10.40
2022-11-18T05:53:24.466Z,10.40
2022-11-18T05:56:48.503Z,10.40
2022-11-18T06:00:16.554Z,10.40
2022-11-18T06:03:42.851Z,10.40
2022-11-18T06:07:16.795Z,10.40
2022-11-18T06:10:44.363Z,10.40
2022-11-18T06:14:16.233Z,10.30
2022-11-18T06:17:46.526Z,10.40
2022-11-18T06:21:10.323Z,10.40
2022-11-18T06:24:34.462Z,10.40
2022-11-18T06:28:01.786Z,10.40
2022-11-18T06:31:25.381Z,10.40
2022-11-18T06:34:50.227Z,10.40
2022-11-18T06:38:13.885Z,10.40
2022-11-18T06:41:37.433Z,10.40
2022-11-18T06:45:02.120Z,10.50
2022-11-18T06:48:25.976Z,10.50
2022-11-18T06:51:50.927Z,10.50
2022-11-18T06:55:14.574Z,10.50
2022-11-18T06:58:38.111Z,10.50
2022-11-18T07:02:01.624Z,10.50
2022-11-18T07:05:25.218Z,10.50
2022-11-18T07:08:51.571Z,10.50
2022-11-18T07:12:15.153Z,10.50
2022-11-18T07:15:38.701Z,10.60
2022-11-18T07:19:02.184Z,10.60
2022-11-18T07:22:25.936Z,10.60
2022-11-18T07:25:50.848Z,10.70
2022-11-18T07:29:14.491Z,10.70
2022-11-18T07:32:38.087Z,10.70
2022-11-18T07:36:07.369Z,10.70
2022-11-18T07:39:30.895Z,10.70
2022-11-18T07:42:55.778Z,10.70
2022-11-18T07:46:23.143Z,10.90
2022-11-18T07:49:46.769Z,10.70
2022-11-18T07:53:10.513Z,10.70
2022-11-18T07:56:34.053Z,10.70
2022-11-18T07:59:58.868Z,11.00
2022-11-18T08:03:27.772Z,10.70
2022-11-18T08:06:51.408Z,10.80
2022-11-18T08:10:15.107Z,10.80
2022-11-18T08:13:39.146Z,10.80
2022-11-18T08:17:04.114Z,10.80
2022-11-18T08:20:27.877Z,10.80
2022-11-18T08:23:53.229Z,10.90
2022-11-18T08:27:16.775Z,10.90
2022-11-18T08:30:41.078Z,10.90
2022-11-18T08:34:08.526Z,10.90
2022-11-18T08:37:32.017Z,10.90
2022-11-18T08:40:55.734Z,10.90
2022-11-18T08:44:19.362Z,10.90
2022-11-18T08:47:42.919Z,10.90
2022-11-18T08:51:11.860Z,10.90
2022-11-18T08:54:35.369Z,11.00
2022-11-18T08:57:58.838Z,11.00
2022-11-18T09:01:22.678Z,11.00
2022-11-18T09:04:48.150Z,11.00
2022-11-18T09:08:13.089Z,11.10
2022-11-18T09:11:40.027Z,11.10
2022-11-18T09:25:26.637Z,11.20
2022-11-18T09:32:16.432Z,11.20
2022-11-18T09:35:43.628Z,11.20
2022-11-18T09:39:07.165Z,11.20
2022-11-18T09:42:56.020Z,11.20
2022-11-18T09:46:31.812Z,11.20
2022-11-18T09:49:57.920Z,11.20
2022-11-18T09:53:23.540Z,11.30
2022-11-18T09:56:48.672Z,11.20
2022-11-18T10:00:19.869Z,11.20
2022-11-18T10:14:30.525Z,11.50
2022-11-18T10:35:34.903Z,11.70
2022-11-18T10:39:19.387Z,11.70
2022-11-18T10:56:59.010Z,12.10
2022-11-18T11:04:13.229Z,12.30
2022-11-18T11:54:53.499Z,12.00
2022-11-18T12:02:25.709Z,12.20
2022-11-18T12:12:57.316Z,12.30
2022-11-18T12:42:13.488Z,12.10
2022-11-18T13:00:55.436Z,11.80
2022-11-18T13:11:47.081Z,11.50
2022-11-18T13:15:32.037Z,11.70
2022-11-18T13:36:44.714Z,11.60
2022-11-18T13:43:51.424Z,12.20
2022-11-18T14:19:08.855Z,12.30
2022-11-18T14:26:00.850Z,12.30
2022-11-18T14:43:26.928Z,12.10
2022-11-18T14:53:41.752Z,11.70
2022-11-18T15:00:31.895Z,11.90
2022-11-18T15:17:37.463Z,11.60
2022-11-18T15:31:12.657Z,11.50
2022-11-18T15:41:27.994Z,11.60
2022-11-18T16:22:57.692Z,11.70
2022-11-18T17:04:12.784Z,11.70
2022-11-18T17:34:59.398Z,11.70
2022-11-18T17:42:04.408Z,11.70
2022-11-18T17:45:27.947Z,11.80
2022-11-18T18:13:12.702Z,11.60
2022-11-18T18:37:04.441Z,11.20
2022-11-18T18:40:28.072Z,11.30
2022-11-18T19:07:46.153Z,10.90
2022-11-18T19:14:54.301Z,10.80
2022-11-18T19:28:37.395Z,10.60
2022-11-18T19:38:55.670Z,10.90
2022-11-18T20:06:22.302Z,11.10
2022-11-18T20:09:47.143Z,11.10
2022-11-18T20:26:48.642Z,11.00
2022-11-18T20:33:39.672Z,11.10
2022-11-18T20:43:54.060Z,11.10
2022-11-18T21:11:15.663Z,10.90
2022-11-18T21:25:07.558Z,10.70
2022-11-18T21:31:55.648Z,10.30
2022-11-18T21:38:44.913Z,10.50
2022-11-18T22:02:37.334Z,10.80
2022-11-18T22:40:16.542Z,10.70
2022-11-18T22:47:06.353Z,10.70
2022-11-18T22:54:16.005Z,10.60
2022-11-18T22:57:39.041Z,10.60
2022-11-18T23:01:07.890Z,10.50
2022-11-18T23:11:35.568Z,10.50
2022-11-18T23:14:59.213Z,10.80
2022-11-18T23:38:50.390Z,10.70
2022-11-18T23:45:37.929Z,10.70
2022-11-18T23:55:50.956Z,10.30
